Aeroporto :
LOGIN :

Iscrizione | Disclaimer

   EN    FR    IT 

 










Sommario :    VFR   VFR Marginale   IFR   IFR Intensivo   IFR Molto Intensivo
Visibilità : 
Base nubi : 
>= 8 km
>= 3000ft
5 / 8 km
1000 / 3000 ft
1500m / 5 km
500 / 1000 ft
800 / 1500m
200 / 500 ft
< 800m
< 200 ft
Simboli :   Temporali  Nebbia  Neve Forte  Precipitazioni Forti  Vento > 20 kt
SIGMETs :   Varie  Temporali  Ghiacco  Turbolenza  Onda orograficha  Ceneri Vulcaniche






- Altitudine del aeroporto : 1302 ft
- Codice IATA : GNB


LFLS - Grenoble / St. Geoirs

ULTIMO METAR :
  • 260100Z AUTO 19002KT CAVOK 10/09 Q1028

METARs OBSOLETI :
  • 260030Z AUTO VRB02KT CAVOK 11/08 Q1028
  • 260000Z AUTO 31005KT 300V010 CAVOK 13/10 Q1028
  • 252330Z AUTO 29004KT 260V360 CAVOK 14/10 Q1029
  • 252300Z AUTO 24003KT 180V290 CAVOK 14/10 Q1029
  • 252230Z AUTO VRB02KT CAVOK 14/10 Q1029

TAF TAF LFLS
Valido dal 25 a 15 ore il 26 a 15 ore UTC


251400Z 2515/2615 35008KT CAVOK
TEMPO 2523/2609 VRB03KT
ATIS : +33 4 76 65 55 89



MetMap, La meteo Aeronautica in un colpo d'occhio ! - Copyright ORBIFLY Dicembre 2007 - Disclaimer

ORBIFLY MET'MAP TEAM :

Programmazione e sviluppo : Alexandra Zaïnal
Concezione : Baudouin d'Aumeries
Aiuto per la programmazione : Marc-Olivier Méhu
Supporto tecnico e logistico : Manuel Goepfert
Aiuto per la traduzione : Arnaldo La Scala

Contatto : metmap@orbifly.com




FONTI E CREDITI :

   NOAA